sensor_id;sensor_type;location;lat;lon;timestamp;P1;durP1;ratioP1;P2;durP2;ratioP2
30472;SDS011;17263;48.160;11.452;2023-04-24T00:00:56;1.73;;;1.33;;
30472;SDS011;17263;48.160;11.452;2023-04-24T00:03:23;1.90;;;1.13;;
30472;SDS011;17263;48.160;11.452;2023-04-24T00:05:50;1.97;;;1.23;;
30472;SDS011;17263;48.160;11.452;2023-04-24T00:08:16;1.03;;;0.97;;
30472;SDS011;17263;48.160;11.452;2023-04-24T00:10:43;1.63;;;1.00;;
30472;SDS011;17263;48.160;11.452;2023-04-24T00:13:09;1.47;;;1.00;;
30472;SDS011;17263;48.160;11.452;2023-04-24T00:15:35;2.17;;;1.27;;
30472;SDS011;17263;48.160;11.452;2023-04-24T00:18:01;2.30;;;1.50;;
30472;SDS011;17263;48.160;11.452;2023-04-24T00:20:27;1.60;;;1.17;;
30472;SDS011;17263;48.160;11.452;2023-04-24T00:22:58;1.50;;;1.20;;
30472;SDS011;17263;48.160;11.452;2023-04-24T00:25:24;1.33;;;1.00;;
30472;SDS011;17263;48.160;11.452;2023-04-24T00:27:50;1.10;;;1.00;;
30472;SDS011;17263;48.160;11.452;2023-04-24T00:30:16;1.20;;;1.10;;
30472;SDS011;17263;48.160;11.452;2023-04-24T00:32:42;2.40;;;0.97;;
30472;SDS011;17263;48.160;11.452;2023-04-24T00:35:08;2.40;;;1.00;;
30472;SDS011;17263;48.160;11.452;2023-04-24T00:37:34;1.07;;;0.90;;
30472;SDS011;17263;48.160;11.452;2023-04-24T00:40:01;1.20;;;1.10;;
30472;SDS011;17263;48.160;11.452;2023-04-24T00:42:28;1.90;;;1.10;;
30472;SDS011;17263;48.160;11.452;2023-04-24T00:44:54;0.73;;;0.73;;
30472;SDS011;17263;48.160;11.452;2023-04-24T00:47:22;1.30;;;1.00;;
30472;SDS011;17263;48.160;11.452;2023-04-24T00:49:48;1.10;;;1.00;;
30472;SDS011;17263;48.160;11.452;2023-04-24T00:52:14;1.60;;;1.10;;
30472;SDS011;17263;48.160;11.452;2023-04-24T00:54:46;1.00;;;0.90;;
30472;SDS011;17263;48.160;11.452;2023-04-24T00:57:12;1.20;;;1.10;;
30472;SDS011;17263;48.160;11.452;2023-04-24T00:59:41;1.60;;;0.97;;
30472;SDS011;17263;48.160;11.452;2023-04-24T01:02:08;1.93;;;0.80;;
30472;SDS011;17263;48.160;11.452;2023-04-24T01:04:36;0.93;;;0.60;;
30472;SDS011;17263;48.160;11.452;2023-04-24T01:07:03;0.60;;;0.60;;
30472;SDS011;17263;48.160;11.452;2023-04-24T01:09:35;1.27;;;0.80;;
30472;SDS011;17263;48.160;11.452;2023-04-24T01:12:06;1.67;;;1.00;;
30472;SDS011;17263;48.160;11.452;2023-04-24T01:14:32;1.30;;;0.80;;
30472;SDS011;17263;48.160;11.452;2023-04-24T01:16:59;0.70;;;0.70;;
30472;SDS011;17263;48.160;11.452;2023-04-24T01:19:25;0.77;;;0.73;;
30472;SDS011;17263;48.160;11.452;2023-04-24T01:21:52;0.70;;;0.70;;
30472;SDS011;17263;48.160;11.452;2023-04-24T01:24:19;0.60;;;0.60;;
30472;SDS011;17263;48.160;11.452;2023-04-24T01:26:46;0.77;;;0.53;;
30472;SDS011;17263;48.160;11.452;2023-04-24T01:29:12;0.70;;;0.70;;
30472;SDS011;17263;48.160;11.452;2023-04-24T01:31:39;4.07;;;0.97;;
30472;SDS011;17263;48.160;11.452;2023-04-24T01:34:05;1.80;;;0.87;;
30472;SDS011;17263;48.160;11.452;2023-04-24T01:36:32;1.00;;;0.90;;
30472;SDS011;17263;48.160;11.452;2023-04-24T01:39:00;0.93;;;0.70;;
30472;SDS011;17263;48.160;11.452;2023-04-24T01:41:26;0.97;;;0.87;;
30472;SDS011;17263;48.160;11.452;2023-04-24T01:43:53;0.53;;;0.53;;
30472;SDS011;17263;48.160;11.452;2023-04-24T01:46:20;0.53;;;0.53;;
30472;SDS011;17263;48.160;11.452;2023-04-24T01:48:46;0.77;;;0.70;;
30472;SDS011;17263;48.160;11.452;2023-04-24T01:51:12;1.03;;;0.77;;
30472;SDS011;17263;48.160;11.452;2023-04-24T01:53:38;0.80;;;0.80;;
30472;SDS011;17263;48.160;11.452;2023-04-24T01:56:04;0.93;;;0.77;;
30472;SDS011;17263;48.160;11.452;2023-04-24T01:58:30;0.67;;;0.60;;
30472;SDS011;17263;48.160;11.452;2023-04-24T02:00:57;0.93;;;0.60;;
30472;SDS011;17263;48.160;11.452;2023-04-24T02:03:24;1.27;;;0.90;;
30472;SDS011;17263;48.160;11.452;2023-04-24T02:05:51;0.73;;;0.70;;
30472;SDS011;17263;48.160;11.452;2023-04-24T02:08:17;0.60;;;0.60;;
30472;SDS011;17263;48.160;11.452;2023-04-24T02:10:43;1.00;;;0.80;;
30472;SDS011;17263;48.160;11.452;2023-04-24T02:13:09;1.93;;;0.70;;
30472;SDS011;17263;48.160;11.452;2023-04-24T02:15:35;0.60;;;0.60;;
30472;SDS011;17263;48.160;11.452;2023-04-24T02:18:01;0.60;;;0.60;;
30472;SDS011;17263;48.160;11.452;2023-04-24T02:20:27;0.97;;;0.83;;
30472;SDS011;17263;48.160;11.452;2023-04-24T02:22:53;0.87;;;0.57;;
30472;SDS011;17263;48.160;11.452;2023-04-24T02:25:20;0.70;;;0.70;;
30472;SDS011;17263;48.160;11.452;2023-04-24T02:27:46;1.43;;;0.80;;
30472;SDS011;17263;48.160;11.452;2023-04-24T02:30:12;1.50;;;0.80;;
30472;SDS011;17263;48.160;11.452;2023-04-24T02:32:39;1.03;;;0.80;;
30472;SDS011;17263;48.160;11.452;2023-04-24T02:35:05;1.50;;;0.90;;
30472;SDS011;17263;48.160;11.452;2023-04-24T02:37:31;1.30;;;0.83;;
30472;SDS011;17263;48.160;11.452;2023-04-24T02:39:57;0.60;;;0.60;;
30472;SDS011;17263;48.160;11.452;2023-04-24T02:42:23;1.40;;;0.90;;
30472;SDS011;17263;48.160;11.452;2023-04-24T02:44:49;1.80;;;0.70;;
30472;SDS011;17263;48.160;11.452;2023-04-24T02:47:16;1.10;;;0.60;;
30472;SDS011;17263;48.160;11.452;2023-04-24T02:49:42;0.63;;;0.60;;
30472;SDS011;17263;48.160;11.452;2023-04-24T02:52:08;0.97;;;0.63;;
30472;SDS011;17263;48.160;11.452;2023-04-24T02:54:34;1.53;;;0.60;;
30472;SDS011;17263;48.160;11.452;2023-04-24T02:57:00;0.73;;;0.73;;
30472;SDS011;17263;48.160;11.452;2023-04-24T02:59:26;1.27;;;0.90;;
30472;SDS011;17263;48.160;11.452;2023-04-24T03:01:54;2.50;;;0.70;;
30472;SDS011;17263;48.160;11.452;2023-04-24T03:04:20;0.67;;;0.60;;
30472;SDS011;17263;48.160;11.452;2023-04-24T03:06:46;0.93;;;0.80;;
30472;SDS011;17263;48.160;11.452;2023-04-24T03:09:12;0.97;;;0.77;;
30472;SDS011;17263;48.160;11.452;2023-04-24T03:11:38;1.13;;;0.80;;
30472;SDS011;17263;48.160;11.452;2023-04-24T03:14:04;0.60;;;0.60;;
30472;SDS011;17263;48.160;11.452;2023-04-24T03:16:30;0.70;;;0.70;;
30472;SDS011;17263;48.160;11.452;2023-04-24T03:18:56;1.77;;;0.90;;
30472;SDS011;17263;48.160;11.452;2023-04-24T03:21:22;1.00;;;0.80;;
30472;SDS011;17263;48.160;11.452;2023-04-24T03:23:48;0.60;;;0.60;;
30472;SDS011;17263;48.160;11.452;2023-04-24T03:26:14;1.43;;;0.70;;
30472;SDS011;17263;48.160;11.452;2023-04-24T03:28:40;1.70;;;0.90;;
30472;SDS011;17263;48.160;11.452;2023-04-24T03:31:06;1.60;;;0.77;;
30472;SDS011;17263;48.160;11.452;2023-04-24T03:33:32;1.03;;;1.00;;
30472;SDS011;17263;48.160;11.452;2023-04-24T03:35:58;1.33;;;0.70;;
30472;SDS011;17263;48.160;11.452;2023-04-24T03:38:24;0.87;;;0.80;;
30472;SDS011;17263;48.160;11.452;2023-04-24T03:40:50;0.87;;;0.70;;
30472;SDS011;17263;48.160;11.452;2023-04-24T03:43:16;1.60;;;1.00;;
30472;SDS011;17263;48.160;11.452;2023-04-24T03:45:42;2.17;;;0.90;;
30472;SDS011;17263;48.160;11.452;2023-04-24T03:48:08;1.13;;;0.80;;
30472;SDS011;17263;48.160;11.452;2023-04-24T03:50:34;0.93;;;0.80;;
30472;SDS011;17263;48.160;11.452;2023-04-24T03:53:00;1.10;;;1.00;;
30472;SDS011;17263;48.160;11.452;2023-04-24T03:55:26;0.90;;;0.90;;
30472;SDS011;17263;48.160;11.452;2023-04-24T03:57:52;1.87;;;0.90;;
30472;SDS011;17263;48.160;11.452;2023-04-24T04:00:18;1.23;;;0.70;;
30472;SDS011;17263;48.160;11.452;2023-04-24T04:02:44;2.33;;;1.00;;
30472;SDS011;17263;48.160;11.452;2023-04-24T04:05:10;1.03;;;0.87;;
30472;SDS011;17263;48.160;11.452;2023-04-24T04:07:36;1.07;;;0.90;;
30472;SDS011;17263;48.160;11.452;2023-04-24T04:10:02;1.10;;;0.90;;
30472;SDS011;17263;48.160;11.452;2023-04-24T04:12:29;1.10;;;1.00;;
30472;SDS011;17263;48.160;11.452;2023-04-24T04:14:55;1.27;;;0.73;;
30472;SDS011;17263;48.160;11.452;2023-04-24T04:17:21;0.83;;;0.80;;
30472;SDS011;17263;48.160;11.452;2023-04-24T04:19:47;1.63;;;0.70;;
30472;SDS011;17263;48.160;11.452;2023-04-24T04:22:13;2.93;;;1.10;;
30472;SDS011;17263;48.160;11.452;2023-04-24T04:24:39;1.27;;;0.90;;
30472;SDS011;17263;48.160;11.452;2023-04-24T04:27:06;1.00;;;0.93;;
30472;SDS011;17263;48.160;11.452;2023-04-24T04:29:33;5.17;;;0.93;;
30472;SDS011;17263;48.160;11.452;2023-04-24T04:32:00;1.07;;;0.80;;
30472;SDS011;17263;48.160;11.452;2023-04-24T04:34:26;1.37;;;0.70;;
30472;SDS011;17263;48.160;11.452;2023-04-24T04:36:52;1.10;;;1.00;;
30472;SDS011;17263;48.160;11.452;2023-04-24T04:39:18;1.57;;;0.97;;
30472;SDS011;17263;48.160;11.452;2023-04-24T04:41:45;1.47;;;0.87;;
30472;SDS011;17263;48.160;11.452;2023-04-24T04:44:14;1.53;;;1.10;;
30472;SDS011;17263;48.160;11.452;2023-04-24T04:46:40;1.00;;;0.90;;
30472;SDS011;17263;48.160;11.452;2023-04-24T04:49:07;1.47;;;0.80;;
30472;SDS011;17263;48.160;11.452;2023-04-24T04:51:34;0.97;;;0.70;;
30472;SDS011;17263;48.160;11.452;2023-04-24T04:54:00;1.43;;;0.90;;
30472;SDS011;17263;48.160;11.452;2023-04-24T04:56:26;1.47;;;0.80;;
30472;SDS011;17263;48.160;11.452;2023-04-24T04:58:52;1.70;;;1.00;;
30472;SDS011;17263;48.160;11.452;2023-04-24T05:01:18;1.30;;;0.70;;
30472;SDS011;17263;48.160;11.452;2023-04-24T05:03:44;0.93;;;0.83;;
30472;SDS011;17263;48.160;11.452;2023-04-24T05:06:10;1.10;;;0.77;;
30472;SDS011;17263;48.160;11.452;2023-04-24T05:08:36;1.10;;;1.00;;
30472;SDS011;17263;48.160;11.452;2023-04-24T05:11:02;0.80;;;0.80;;
30472;SDS011;17263;48.160;11.452;2023-04-24T05:13:28;0.97;;;0.80;;
30472;SDS011;17263;48.160;11.452;2023-04-24T05:15:54;0.60;;;0.60;;
30472;SDS011;17263;48.160;11.452;2023-04-24T05:18:20;1.43;;;0.80;;
30472;SDS011;17263;48.160;11.452;2023-04-24T05:20:46;0.70;;;0.70;;
30472;SDS011;17263;48.160;11.452;2023-04-24T05:23:12;0.70;;;0.70;;
30472;SDS011;17263;48.160;11.452;2023-04-24T05:25:38;1.27;;;0.63;;
30472;SDS011;17263;48.160;11.452;2023-04-24T05:28:05;0.77;;;0.70;;
30472;SDS011;17263;48.160;11.452;2023-04-24T05:30:31;1.67;;;0.70;;
30472;SDS011;17263;48.160;11.452;2023-04-24T05:32:57;0.93;;;0.80;;
30472;SDS011;17263;48.160;11.452;2023-04-24T05:35:23;0.97;;;0.70;;
30472;SDS011;17263;48.160;11.452;2023-04-24T05:37:50;2.63;;;0.80;;
30472;SDS011;17263;48.160;11.452;2023-04-24T05:40:16;1.47;;;0.70;;
30472;SDS011;17263;48.160;11.452;2023-04-24T05:42:42;0.83;;;0.77;;
30472;SDS011;17263;48.160;11.452;2023-04-24T05:45:08;0.90;;;0.70;;
30472;SDS011;17263;48.160;11.452;2023-04-24T05:47:37;1.00;;;0.80;;
30472;SDS011;17263;48.160;11.452;2023-04-24T05:50:03;2.47;;;0.80;;
30472;SDS011;17263;48.160;11.452;2023-04-24T05:52:29;4.00;;;0.70;;
30472;SDS011;17263;48.160;11.452;2023-04-24T05:54:55;1.10;;;0.70;;
30472;SDS011;17263;48.160;11.452;2023-04-24T05:57:21;1.43;;;0.73;;
30472;SDS011;17263;48.160;11.452;2023-04-24T05:59:47;3.30;;;0.60;;
30472;SDS011;17263;48.160;11.452;2023-04-24T06:02:13;1.43;;;0.73;;
30472;SDS011;17263;48.160;11.452;2023-04-24T06:04:39;1.23;;;0.70;;
30472;SDS011;17263;48.160;11.452;2023-04-24T06:07:06;0.87;;;0.57;;
30472;SDS011;17263;48.160;11.452;2023-04-24T06:09:32;1.70;;;0.97;;
30472;SDS011;17263;48.160;11.452;2023-04-24T06:11:58;2.30;;;0.80;;
30472;SDS011;17263;48.160;11.452;2023-04-24T06:14:25;2.47;;;0.90;;
30472;SDS011;17263;48.160;11.452;2023-04-24T06:16:51;0.80;;;0.70;;
30472;SDS011;17263;48.160;11.452;2023-04-24T06:19:17;0.90;;;0.53;;
30472;SDS011;17263;48.160;11.452;2023-04-24T06:21:43;0.90;;;0.60;;
30472;SDS011;17263;48.160;11.452;2023-04-24T06:24:09;2.23;;;0.67;;
30472;SDS011;17263;48.160;11.452;2023-04-24T06:26:35;2.03;;;0.57;;
30472;SDS011;17263;48.160;11.452;2023-04-24T06:29:01;0.70;;;0.57;;
30472;SDS011;17263;48.160;11.452;2023-04-24T06:31:28;0.73;;;0.50;;
30472;SDS011;17263;48.160;11.452;2023-04-24T06:33:54;1.33;;;0.50;;
30472;SDS011;17263;48.160;11.452;2023-04-24T06:36:20;0.50;;;0.50;;
30472;SDS011;17263;48.160;11.452;2023-04-24T06:38:46;0.77;;;0.60;;
30472;SDS011;17263;48.160;11.452;2023-04-24T06:41:12;1.20;;;1.00;;
30472;SDS011;17263;48.160;11.452;2023-04-24T06:43:38;1.67;;;0.80;;
30472;SDS011;17263;48.160;11.452;2023-04-24T06:46:04;0.70;;;0.60;;
30472;SDS011;17263;48.160;11.452;2023-04-24T06:48:30;2.90;;;0.80;;
30472;SDS011;17263;48.160;11.452;2023-04-24T06:50:56;1.07;;;0.60;;
30472;SDS011;17263;48.160;11.452;2023-04-24T06:53:22;1.03;;;0.47;;
30472;SDS011;17263;48.160;11.452;2023-04-24T06:55:48;1.20;;;0.80;;
30472;SDS011;17263;48.160;11.452;2023-04-24T06:58:14;0.70;;;0.43;;
30472;SDS011;17263;48.160;11.452;2023-04-24T07:00:41;3.03;;;0.63;;
30472;SDS011;17263;48.160;11.452;2023-04-24T07:03:07;1.80;;;0.60;;
30472;SDS011;17263;48.160;11.452;2023-04-24T07:05:33;0.50;;;0.50;;
30472;SDS011;17263;48.160;11.452;2023-04-24T07:08:00;0.77;;;0.63;;
30472;SDS011;17263;48.160;11.452;2023-04-24T07:10:27;0.90;;;0.73;;
30472;SDS011;17263;48.160;11.452;2023-04-24T07:12:54;1.57;;;0.73;;
30472;SDS011;17263;48.160;11.452;2023-04-24T07:15:22;1.43;;;0.80;;
30472;SDS011;17263;48.160;11.452;2023-04-24T07:17:48;0.57;;;0.53;;
30472;SDS011;17263;48.160;11.452;2023-04-24T07:20:15;1.27;;;0.70;;
30472;SDS011;17263;48.160;11.452;2023-04-24T07:22:41;0.97;;;0.70;;
30472;SDS011;17263;48.160;11.452;2023-04-24T07:25:07;1.23;;;0.60;;
30472;SDS011;17263;48.160;11.452;2023-04-24T07:27:34;0.70;;;0.57;;
30472;SDS011;17263;48.160;11.452;2023-04-24T07:30:02;1.00;;;0.47;;
30472;SDS011;17263;48.160;11.452;2023-04-24T07:32:29;1.40;;;0.60;;
30472;SDS011;17263;48.160;11.452;2023-04-24T07:34:55;2.70;;;0.97;;
30472;SDS011;17263;48.160;11.452;2023-04-24T07:37:22;0.60;;;0.57;;
30472;SDS011;17263;48.160;11.452;2023-04-24T07:39:48;0.80;;;0.50;;
30472;SDS011;17263;48.160;11.452;2023-04-24T07:42:14;0.77;;;0.47;;
30472;SDS011;17263;48.160;11.452;2023-04-24T07:44:40;1.43;;;0.83;;
30472;SDS011;17263;48.160;11.452;2023-04-24T07:47:06;1.43;;;0.70;;
30472;SDS011;17263;48.160;11.452;2023-04-24T07:49:33;0.90;;;0.67;;
30472;SDS011;17263;48.160;11.452;2023-04-24T07:52:00;1.70;;;0.50;;
30472;SDS011;17263;48.160;11.452;2023-04-24T07:54:28;0.87;;;0.33;;
30472;SDS011;17263;48.160;11.452;2023-04-24T07:56:54;0.83;;;0.50;;
30472;SDS011;17263;48.160;11.452;2023-04-24T07:59:20;1.20;;;0.40;;
30472;SDS011;17263;48.160;11.452;2023-04-24T08:01:46;0.90;;;0.50;;
30472;SDS011;17263;48.160;11.452;2023-04-24T08:04:12;1.60;;;0.50;;
30472;SDS011;17263;48.160;11.452;2023-04-24T08:06:38;0.50;;;0.50;;
30472;SDS011;17263;48.160;11.452;2023-04-24T08:09:04;1.70;;;0.80;;
30472;SDS011;17263;48.160;11.452;2023-04-24T08:11:30;1.17;;;0.67;;
30472;SDS011;17263;48.160;11.452;2023-04-24T08:13:57;0.80;;;0.80;;
30472;SDS011;17263;48.160;11.452;2023-04-24T08:16:23;1.17;;;0.73;;
30472;SDS011;17263;48.160;11.452;2023-04-24T08:18:49;0.60;;;0.60;;
30472;SDS011;17263;48.160;11.452;2023-04-24T08:21:16;0.67;;;0.67;;
30472;SDS011;17263;48.160;11.452;2023-04-24T08:23:44;1.37;;;0.70;;
30472;SDS011;17263;48.160;11.452;2023-04-24T08:26:11;0.60;;;0.60;;
30472;SDS011;17263;48.160;11.452;2023-04-24T08:28:38;1.13;;;0.67;;
30472;SDS011;17263;48.160;11.452;2023-04-24T08:31:04;1.47;;;0.53;;
30472;SDS011;17263;48.160;11.452;2023-04-24T08:33:30;0.80;;;0.70;;
30472;SDS011;17263;48.160;11.452;2023-04-24T08:36:03;0.60;;;0.60;;
30472;SDS011;17263;48.160;11.452;2023-04-24T08:38:30;1.63;;;0.70;;
30472;SDS011;17263;48.160;11.452;2023-04-24T08:40:57;1.40;;;1.07;;
30472;SDS011;17263;48.160;11.452;2023-04-24T08:43:25;0.80;;;0.80;;
30472;SDS011;17263;48.160;11.452;2023-04-24T08:45:51;1.50;;;0.90;;
30472;SDS011;17263;48.160;11.452;2023-04-24T08:48:18;2.70;;;1.10;;
30472;SDS011;17263;48.160;11.452;2023-04-24T08:50:45;2.30;;;1.00;;
30472;SDS011;17263;48.160;11.452;2023-04-24T08:53:11;2.90;;;1.20;;
30472;SDS011;17263;48.160;11.452;2023-04-24T08:55:37;1.90;;;1.20;;
30472;SDS011;17263;48.160;11.452;2023-04-24T08:58:03;1.73;;;1.07;;
30472;SDS011;17263;48.160;11.452;2023-04-24T09:00:29;2.03;;;1.20;;
30472;SDS011;17263;48.160;11.452;2023-04-24T09:02:56;3.87;;;1.10;;
30472;SDS011;17263;48.160;11.452;2023-04-24T09:05:22;2.60;;;1.10;;
30472;SDS011;17263;48.160;11.452;2023-04-24T09:07:55;1.50;;;0.90;;
30472;SDS011;17263;48.160;11.452;2023-04-24T09:10:22;1.50;;;1.10;;
30472;SDS011;17263;48.160;11.452;2023-04-24T09:12:50;1.60;;;1.07;;
30472;SDS011;17263;48.160;11.452;2023-04-24T09:15:18;1.87;;;1.00;;
30472;SDS011;17263;48.160;11.452;2023-04-24T09:17:46;0.90;;;0.90;;
30472;SDS011;17263;48.160;11.452;2023-04-24T09:20:12;1.93;;;1.20;;
30472;SDS011;17263;48.160;11.452;2023-04-24T09:22:39;2.50;;;1.50;;
30472;SDS011;17263;48.160;11.452;2023-04-24T09:25:05;1.17;;;1.07;;
30472;SDS011;17263;48.160;11.452;2023-04-24T09:27:33;2.50;;;1.27;;
30472;SDS011;17263;48.160;11.452;2023-04-24T09:30:00;2.20;;;1.40;;
30472;SDS011;17263;48.160;11.452;2023-04-24T09:32:27;2.37;;;1.40;;
30472;SDS011;17263;48.160;11.452;2023-04-24T09:35:05;1.57;;;1.47;;
30472;SDS011;17263;48.160;11.452;2023-04-24T09:37:41;1.73;;;1.40;;
30472;SDS011;17263;48.160;11.452;2023-04-24T09:40:11;2.83;;;1.50;;
30472;SDS011;17263;48.160;11.452;2023-04-24T09:42:39;1.53;;;1.40;;
30472;SDS011;17263;48.160;11.452;2023-04-24T09:45:09;3.13;;;1.30;;
30472;SDS011;17263;48.160;11.452;2023-04-24T09:47:37;1.50;;;1.20;;
30472;SDS011;17263;48.160;11.452;2023-04-24T09:50:12;2.87;;;1.40;;
30472;SDS011;17263;48.160;11.452;2023-04-24T09:52:41;3.07;;;1.30;;
30472;SDS011;17263;48.160;11.452;2023-04-24T09:55:19;2.20;;;1.47;;
30472;SDS011;17263;48.160;11.452;2023-04-24T09:57:49;1.70;;;1.20;;
30472;SDS011;17263;48.160;11.452;2023-04-24T10:00:21;1.30;;;1.20;;
30472;SDS011;17263;48.160;11.452;2023-04-24T10:02:54;1.30;;;1.20;;
30472;SDS011;17263;48.160;11.452;2023-04-24T10:05:27;2.23;;;1.10;;
30472;SDS011;17263;48.160;11.452;2023-04-24T10:10:31;3.20;;;1.30;;
30472;SDS011;17263;48.160;11.452;2023-04-24T10:12:59;1.50;;;1.20;;
30472;SDS011;17263;48.160;11.452;2023-04-24T10:15:26;1.67;;;1.20;;
30472;SDS011;17263;48.160;11.452;2023-04-24T10:17:52;1.37;;;1.20;;
30472;SDS011;17263;48.160;11.452;2023-04-24T10:20:19;1.80;;;1.40;;
30472;SDS011;17263;48.160;11.452;2023-04-24T10:22:50;2.10;;;1.20;;
30472;SDS011;17263;48.160;11.452;2023-04-24T10:25:21;1.77;;;1.23;;
30472;SDS011;17263;48.160;11.452;2023-04-24T10:27:52;1.20;;;1.10;;
30472;SDS011;17263;48.160;11.452;2023-04-24T10:30:22;1.40;;;1.20;;
30472;SDS011;17263;48.160;11.452;2023-04-24T10:32:49;1.57;;;1.23;;
30472;SDS011;17263;48.160;11.452;2023-04-24T10:35:15;1.70;;;1.10;;
30472;SDS011;17263;48.160;11.452;2023-04-24T10:37:48;1.77;;;1.10;;
30472;SDS011;17263;48.160;11.452;2023-04-24T10:40:24;1.57;;;1.37;;
30472;SDS011;17263;48.160;11.452;2023-04-24T10:42:52;2.90;;;1.50;;
30472;SDS011;17263;48.160;11.452;2023-04-24T10:45:20;2.77;;;1.67;;
30472;SDS011;17263;48.160;11.452;2023-04-24T10:47:56;1.73;;;1.33;;
30472;SDS011;17263;48.160;11.452;2023-04-24T10:50:34;3.30;;;0.90;;
30472;SDS011;17263;48.160;11.452;2023-04-24T10:53:17;1.63;;;1.10;;
30472;SDS011;17263;48.160;11.452;2023-04-24T10:55:57;1.87;;;1.07;;
30472;SDS011;17263;48.160;11.452;2023-04-24T10:58:38;1.30;;;1.00;;
30472;SDS011;17263;48.160;11.452;2023-04-24T11:01:27;0.90;;;0.70;;
30472;SDS011;17263;48.160;11.452;2023-04-24T11:04:01;1.13;;;0.77;;
30472;SDS011;17263;48.160;11.452;2023-04-24T11:06:35;0.93;;;0.90;;
30472;SDS011;17263;48.160;11.452;2023-04-24T11:09:03;0.77;;;0.77;;
30472;SDS011;17263;48.160;11.452;2023-04-24T11:11:38;0.83;;;0.60;;
30472;SDS011;17263;48.160;11.452;2023-04-24T11:14:09;0.70;;;0.70;;
30472;SDS011;17263;48.160;11.452;2023-04-24T11:16:38;1.10;;;1.00;;
30472;SDS011;17263;48.160;11.452;2023-04-24T11:19:06;1.00;;;0.90;;
30472;SDS011;17263;48.160;11.452;2023-04-24T11:21:39;1.80;;;1.30;;
30472;SDS011;17263;48.160;11.452;2023-04-24T11:24:27;2.50;;;1.40;;
30472;SDS011;17263;48.160;11.452;2023-04-24T11:26:58;1.50;;;1.40;;
30472;SDS011;17263;48.160;11.452;2023-04-24T11:29:40;1.77;;;1.30;;
30472;SDS011;17263;48.160;11.452;2023-04-24T11:32:17;1.40;;;1.30;;
30472;SDS011;17263;48.160;11.452;2023-04-24T11:35:00;1.00;;;0.90;;
30472;SDS011;17263;48.160;11.452;2023-04-24T11:37:36;1.00;;;1.00;;
30472;SDS011;17263;48.160;11.452;2023-04-24T11:40:02;0.93;;;0.80;;
30472;SDS011;17263;48.160;11.452;2023-04-24T11:42:39;1.10;;;1.00;;
30472;SDS011;17263;48.160;11.452;2023-04-24T11:47:42;1.27;;;1.10;;
30472;SDS011;17263;48.160;11.452;2023-04-24T11:50:12;1.10;;;0.93;;
30472;SDS011;17263;48.160;11.452;2023-04-24T11:52:39;1.40;;;1.20;;
30472;SDS011;17263;48.160;11.452;2023-04-24T11:55:09;1.33;;;0.97;;
30472;SDS011;17263;48.160;11.452;2023-04-24T11:57:53;1.03;;;0.97;;
30472;SDS011;17263;48.160;11.452;2023-04-24T12:00:22;1.83;;;0.90;;
30472;SDS011;17263;48.160;11.452;2023-04-24T12:02:50;0.93;;;0.90;;
30472;SDS011;17263;48.160;11.452;2023-04-24T12:07:47;7.83;;;1.40;;
30472;SDS011;17263;48.160;11.452;2023-04-24T12:10:13;2.30;;;1.13;;
30472;SDS011;17263;48.160;11.452;2023-04-24T12:12:40;3.00;;;1.17;;
30472;SDS011;17263;48.160;11.452;2023-04-24T12:15:06;2.07;;;1.20;;
30472;SDS011;17263;48.160;11.452;2023-04-24T12:17:34;1.63;;;1.10;;
30472;SDS011;17263;48.160;11.452;2023-04-24T12:20:02;1.63;;;1.30;;
30472;SDS011;17263;48.160;11.452;2023-04-24T12:25:17;1.40;;;1.20;;
30472;SDS011;17263;48.160;11.452;2023-04-24T12:27:44;1.70;;;1.20;;
30472;SDS011;17263;48.160;11.452;2023-04-24T12:30:12;2.23;;;1.10;;
30472;SDS011;17263;48.160;11.452;2023-04-24T12:32:41;1.37;;;1.13;;
30472;SDS011;17263;48.160;11.452;2023-04-24T12:35:08;1.60;;;1.20;;
30472;SDS011;17263;48.160;11.452;2023-04-24T12:37:34;1.07;;;0.90;;
30472;SDS011;17263;48.160;11.452;2023-04-24T12:40:11;2.13;;;1.27;;
30472;SDS011;17263;48.160;11.452;2023-04-24T12:42:45;1.20;;;1.10;;
30472;SDS011;17263;48.160;11.452;2023-04-24T12:45:12;3.03;;;1.30;;
30472;SDS011;17263;48.160;11.452;2023-04-24T12:47:39;1.57;;;1.20;;
30472;SDS011;17263;48.160;11.452;2023-04-24T12:50:10;2.00;;;1.07;;
30472;SDS011;17263;48.160;11.452;2023-04-24T12:52:37;1.43;;;1.20;;
30472;SDS011;17263;48.160;11.452;2023-04-24T12:55:04;1.33;;;1.10;;
30472;SDS011;17263;48.160;11.452;2023-04-24T12:57:33;1.10;;;0.93;;
30472;SDS011;17263;48.160;11.452;2023-04-24T13:00:01;1.63;;;1.30;;
30472;SDS011;17263;48.160;11.452;2023-04-24T13:02:28;2.80;;;1.50;;
30472;SDS011;17263;48.160;11.452;2023-04-24T13:04:56;1.47;;;1.30;;
30472;SDS011;17263;48.160;11.452;2023-04-24T13:07:23;2.10;;;1.50;;
30472;SDS011;17263;48.160;11.452;2023-04-24T13:09:50;1.90;;;1.43;;
30472;SDS011;17263;48.160;11.452;2023-04-24T13:12:17;2.50;;;1.50;;
30472;SDS011;17263;48.160;11.452;2023-04-24T13:14:43;2.20;;;1.47;;
30472;SDS011;17263;48.160;11.452;2023-04-24T13:17:09;2.13;;;1.50;;
30472;SDS011;17263;48.160;11.452;2023-04-24T13:19:36;1.37;;;1.20;;
30472;SDS011;17263;48.160;11.452;2023-04-24T13:22:03;3.03;;;1.40;;
30472;SDS011;17263;48.160;11.452;2023-04-24T13:24:30;2.53;;;1.37;;
30472;SDS011;17263;48.160;11.452;2023-04-24T13:26:56;2.60;;;1.30;;
30472;SDS011;17263;48.160;11.452;2023-04-24T13:29:23;2.30;;;1.60;;
30472;SDS011;17263;48.160;11.452;2023-04-24T13:31:50;1.30;;;1.13;;
30472;SDS011;17263;48.160;11.452;2023-04-24T13:34:17;1.30;;;1.20;;
30472;SDS011;17263;48.160;11.452;2023-04-24T13:36:43;3.07;;;1.27;;
30472;SDS011;17263;48.160;11.452;2023-04-24T13:39:09;3.63;;;1.50;;
30472;SDS011;17263;48.160;11.452;2023-04-24T13:41:36;1.37;;;1.20;;
30472;SDS011;17263;48.160;11.452;2023-04-24T13:44:02;1.90;;;1.37;;
30472;SDS011;17263;48.160;11.452;2023-04-24T13:46:29;1.57;;;1.43;;
30472;SDS011;17263;48.160;11.452;2023-04-24T13:48:55;3.40;;;1.50;;
30472;SDS011;17263;48.160;11.452;2023-04-24T13:51:22;3.23;;;1.60;;
30472;SDS011;17263;48.160;11.452;2023-04-24T13:53:49;4.50;;;1.43;;
30472;SDS011;17263;48.160;11.452;2023-04-24T13:56:15;2.57;;;1.50;;
30472;SDS011;17263;48.160;11.452;2023-04-24T13:58:41;1.50;;;1.40;;
30472;SDS011;17263;48.160;11.452;2023-04-24T14:01:07;2.60;;;1.50;;
30472;SDS011;17263;48.160;11.452;2023-04-24T14:03:33;3.30;;;1.53;;
30472;SDS011;17263;48.160;11.452;2023-04-24T14:05:59;3.90;;;1.57;;
30472;SDS011;17263;48.160;11.452;2023-04-24T14:08:25;2.33;;;1.30;;
30472;SDS011;17263;48.160;11.452;2023-04-24T14:10:51;1.83;;;1.20;;
30472;SDS011;17263;48.160;11.452;2023-04-24T14:13:17;1.93;;;1.20;;
30472;SDS011;17263;48.160;11.452;2023-04-24T14:15:43;1.70;;;1.50;;
30472;SDS011;17263;48.160;11.452;2023-04-24T14:18:10;3.37;;;1.50;;
30472;SDS011;17263;48.160;11.452;2023-04-24T14:20:36;1.30;;;1.20;;
30472;SDS011;17263;48.160;11.452;2023-04-24T14:23:02;1.70;;;1.50;;
30472;SDS011;17263;48.160;11.452;2023-04-24T14:25:29;2.30;;;1.30;;
30472;SDS011;17263;48.160;11.452;2023-04-24T14:27:55;2.53;;;1.43;;
30472;SDS011;17263;48.160;11.452;2023-04-24T14:30:21;1.87;;;1.50;;
30472;SDS011;17263;48.160;11.452;2023-04-24T14:32:48;1.93;;;1.53;;
30472;SDS011;17263;48.160;11.452;2023-04-24T14:35:14;2.60;;;1.47;;
30472;SDS011;17263;48.160;11.452;2023-04-24T14:37:40;1.77;;;1.17;;
30472;SDS011;17263;48.160;11.452;2023-04-24T14:40:07;1.47;;;1.37;;
30472;SDS011;17263;48.160;11.452;2023-04-24T14:42:34;2.67;;;1.50;;
30472;SDS011;17263;48.160;11.452;2023-04-24T14:45:01;2.43;;;1.40;;